sensor_id;sensor_type;location;lat;lon;timestamp;P1;durP1;ratioP1;P2;durP2;ratioP2
75737;SDS011;64356;45.638;13.764;2023-10-19T00:01:17;6.15;;;4.13;;
75737;SDS011;64356;45.638;13.764;2023-10-19T00:03:43;4.38;;;2.95;;
75737;SDS011;64356;45.638;13.764;2023-10-19T00:06:14;3.42;;;2.92;;
75737;SDS011;64356;45.638;13.764;2023-10-19T00:08:43;6.45;;;3.33;;
75737;SDS011;64356;45.638;13.764;2023-10-19T00:11:09;5.03;;;3.63;;
75737;SDS011;64356;45.638;13.764;2023-10-19T00:13:37;3.92;;;3.20;;
75737;SDS011;64356;45.638;13.764;2023-10-19T00:16:04;4.95;;;3.38;;
75737;SDS011;64356;45.638;13.764;2023-10-19T00:18:41;3.42;;;3.10;;
75737;SDS011;64356;45.638;13.764;2023-10-19T00:21:13;4.72;;;3.58;;
75737;SDS011;64356;45.638;13.764;2023-10-19T00:23:55;4.30;;;3.28;;
75737;SDS011;64356;45.638;13.764;2023-10-19T00:26:23;8.45;;;3.20;;
75737;SDS011;64356;45.638;13.764;2023-10-19T00:28:54;3.20;;;2.90;;
75737;SDS011;64356;45.638;13.764;2023-10-19T00:31:26;3.45;;;2.95;;
75737;SDS011;64356;45.638;13.764;2023-10-19T00:33:53;4.20;;;3.07;;
75737;SDS011;64356;45.638;13.764;2023-10-19T00:36:22;4.18;;;3.30;;
75737;SDS011;64356;45.638;13.764;2023-10-19T00:38:48;3.78;;;3.17;;
75737;SDS011;64356;45.638;13.764;2023-10-19T00:41:15;4.88;;;2.95;;
75737;SDS011;64356;45.638;13.764;2023-10-19T00:43:46;3.38;;;2.90;;
75737;SDS011;64356;45.638;13.764;2023-10-19T00:46:23;3.35;;;2.88;;
75737;SDS011;64356;45.638;13.764;2023-10-19T00:49:05;7.88;;;3.63;;
75737;SDS011;64356;45.638;13.764;2023-10-19T00:51:44;4.88;;;3.30;;
75737;SDS011;64356;45.638;13.764;2023-10-19T00:54:16;3.75;;;2.78;;
75737;SDS011;64356;45.638;13.764;2023-10-19T00:57:04;4.60;;;3.17;;
75737;SDS011;64356;45.638;13.764;2023-10-19T00:59:35;4.07;;;2.95;;
75737;SDS011;64356;45.638;13.764;2023-10-19T01:02:12;4.85;;;3.13;;
75737;SDS011;64356;45.638;13.764;2023-10-19T01:04:43;4.63;;;3.13;;
75737;SDS011;64356;45.638;13.764;2023-10-19T01:07:10;5.68;;;2.78;;
75737;SDS011;64356;45.638;13.764;2023-10-19T01:09:47;4.18;;;3.22;;
75737;SDS011;64356;45.638;13.764;2023-10-19T01:12:13;4.82;;;3.00;;
75737;SDS011;64356;45.638;13.764;2023-10-19T01:17:39;5.22;;;2.67;;
75737;SDS011;64356;45.638;13.764;2023-10-19T01:20:09;3.42;;;2.65;;
75737;SDS011;64356;45.638;13.764;2023-10-19T01:23:08;3.58;;;3.10;;
75737;SDS011;64356;45.638;13.764;2023-10-19T01:31:12;6.07;;;2.97;;
75737;SDS011;64356;45.638;13.764;2023-10-19T01:33:55;4.53;;;2.60;;
75737;SDS011;64356;45.638;13.764;2023-10-19T01:36:22;9.63;;;3.03;;
75737;SDS011;64356;45.638;13.764;2023-10-19T01:38:54;4.88;;;2.50;;
75737;SDS011;64356;45.638;13.764;2023-10-19T01:41:25;4.28;;;2.80;;
75737;SDS011;64356;45.638;13.764;2023-10-19T01:43:52;3.72;;;2.47;;
75737;SDS011;64356;45.638;13.764;2023-10-19T01:46:18;2.88;;;2.40;;
75737;SDS011;64356;45.638;13.764;2023-10-19T01:48:58;3.75;;;2.00;;
75737;SDS011;64356;45.638;13.764;2023-10-19T01:51:27;4.28;;;2.47;;
75737;SDS011;64356;45.638;13.764;2023-10-19T01:53:54;3.55;;;2.85;;
75737;SDS011;64356;45.638;13.764;2023-10-19T01:56:21;4.65;;;2.83;;
75737;SDS011;64356;45.638;13.764;2023-10-19T01:58:47;5.43;;;2.75;;
75737;SDS011;64356;45.638;13.764;2023-10-19T02:01:16;3.75;;;2.55;;
75737;SDS011;64356;45.638;13.764;2023-10-19T02:03:46;3.25;;;2.30;;
75737;SDS011;64356;45.638;13.764;2023-10-19T02:06:18;5.30;;;2.05;;
75737;SDS011;64356;45.638;13.764;2023-10-19T02:08:49;3.58;;;2.55;;
75737;SDS011;64356;45.638;13.764;2023-10-19T02:11:20;4.88;;;2.55;;
75737;SDS011;64356;45.638;13.764;2023-10-19T02:13:47;3.38;;;2.60;;
75737;SDS011;64356;45.638;13.764;2023-10-19T02:16:15;5.70;;;2.67;;
75737;SDS011;64356;45.638;13.764;2023-10-19T02:18:47;6.15;;;2.30;;
75737;SDS011;64356;45.638;13.764;2023-10-19T02:21:14;6.38;;;2.70;;
75737;SDS011;64356;45.638;13.764;2023-10-19T02:23:47;3.67;;;2.45;;
75737;SDS011;64356;45.638;13.764;2023-10-19T02:26:21;2.55;;;2.35;;
75737;SDS011;64356;45.638;13.764;2023-10-19T02:28:55;3.35;;;2.40;;
75737;SDS011;64356;45.638;13.764;2023-10-19T02:31:22;3.60;;;2.60;;
75737;SDS011;64356;45.638;13.764;2023-10-19T02:33:48;3.38;;;2.33;;
75737;SDS011;64356;45.638;13.764;2023-10-19T02:36:23;6.45;;;2.40;;
75737;SDS011;64356;45.638;13.764;2023-10-19T02:38:56;4.22;;;2.65;;
75737;SDS011;64356;45.638;13.764;2023-10-19T02:41:28;4.20;;;2.63;;
75737;SDS011;64356;45.638;13.764;2023-10-19T02:43:54;8.07;;;2.10;;
75737;SDS011;64356;45.638;13.764;2023-10-19T02:46:30;4.32;;;2.40;;
75737;SDS011;64356;45.638;13.764;2023-10-19T02:49:02;3.28;;;2.25;;
75737;SDS011;64356;45.638;13.764;2023-10-19T02:51:49;5.20;;;2.50;;
75737;SDS011;64356;45.638;13.764;2023-10-19T02:54:17;2.67;;;2.30;;
75737;SDS011;64356;45.638;13.764;2023-10-19T02:56:45;3.33;;;2.40;;
75737;SDS011;64356;45.638;13.764;2023-10-19T02:59:15;5.30;;;2.88;;
75737;SDS011;64356;45.638;13.764;2023-10-19T03:01:42;4.10;;;2.20;;
75737;SDS011;64356;45.638;13.764;2023-10-19T03:04:10;5.65;;;2.42;;
75737;SDS011;64356;45.638;13.764;2023-10-19T03:06:40;2.78;;;2.22;;
75737;SDS011;64356;45.638;13.764;2023-10-19T03:09:07;3.80;;;2.40;;
75737;SDS011;64356;45.638;13.764;2023-10-19T03:11:55;3.40;;;2.35;;
75737;SDS011;64356;45.638;13.764;2023-10-19T03:14:27;4.00;;;2.20;;
75737;SDS011;64356;45.638;13.764;2023-10-19T03:16:53;2.97;;;2.05;;
75737;SDS011;64356;45.638;13.764;2023-10-19T03:19:22;2.55;;;2.08;;
75737;SDS011;64356;45.638;13.764;2023-10-19T03:21:52;3.55;;;2.40;;
75737;SDS011;64356;45.638;13.764;2023-10-19T03:24:20;4.43;;;2.40;;
75737;SDS011;64356;45.638;13.764;2023-10-19T03:26:59;4.22;;;2.40;;
75737;SDS011;64356;45.638;13.764;2023-10-19T03:29:25;3.42;;;2.13;;
75737;SDS011;64356;45.638;13.764;2023-10-19T03:31:57;3.05;;;2.45;;
75737;SDS011;64356;45.638;13.764;2023-10-19T03:34:26;3.50;;;2.20;;
75737;SDS011;64356;45.638;13.764;2023-10-19T03:36:52;3.58;;;1.95;;
75737;SDS011;64356;45.638;13.764;2023-10-19T03:39:19;2.03;;;1.80;;
75737;SDS011;64356;45.638;13.764;2023-10-19T03:41:46;3.03;;;2.20;;
75737;SDS011;64356;45.638;13.764;2023-10-19T03:44:14;2.42;;;1.92;;
75737;SDS011;64356;45.638;13.764;2023-10-19T03:46:53;3.58;;;2.40;;
75737;SDS011;64356;45.638;13.764;2023-10-19T03:49:19;2.72;;;2.40;;
75737;SDS011;64356;45.638;13.764;2023-10-19T03:51:46;2.55;;;2.05;;
75737;SDS011;64356;45.638;13.764;2023-10-19T03:54:35;2.88;;;2.25;;
75737;SDS011;64356;45.638;13.764;2023-10-19T03:57:08;3.47;;;2.35;;
75737;SDS011;64356;45.638;13.764;2023-10-19T03:59:44;3.25;;;2.25;;
75737;SDS011;64356;45.638;13.764;2023-10-19T04:02:14;5.22;;;2.22;;
75737;SDS011;64356;45.638;13.764;2023-10-19T04:04:45;6.32;;;2.22;;
75737;SDS011;64356;45.638;13.764;2023-10-19T04:07:13;2.78;;;2.38;;
75737;SDS011;64356;45.638;13.764;2023-10-19T04:09:46;2.30;;;1.95;;
75737;SDS011;64356;45.638;13.764;2023-10-19T04:12:32;3.25;;;2.13;;
75737;SDS011;64356;45.638;13.764;2023-10-19T04:15:00;2.47;;;2.00;;
75737;SDS011;64356;45.638;13.764;2023-10-19T04:17:36;2.45;;;1.90;;
75737;SDS011;64356;45.638;13.764;2023-10-19T04:20:04;3.45;;;2.35;;
75737;SDS011;64356;45.638;13.764;2023-10-19T04:22:42;3.85;;;2.55;;
75737;SDS011;64356;45.638;13.764;2023-10-19T04:25:15;3.33;;;2.60;;
75737;SDS011;64356;45.638;13.764;2023-10-19T04:27:45;5.00;;;2.60;;
75737;SDS011;64356;45.638;13.764;2023-10-19T04:30:12;2.05;;;1.85;;
75737;SDS011;64356;45.638;13.764;2023-10-19T04:32:47;5.00;;;2.65;;
75737;SDS011;64356;45.638;13.764;2023-10-19T04:35:15;2.40;;;2.20;;
75737;SDS011;64356;45.638;13.764;2023-10-19T04:37:48;3.55;;;2.50;;
75737;SDS011;64356;45.638;13.764;2023-10-19T04:40:15;2.90;;;2.35;;
75737;SDS011;64356;45.638;13.764;2023-10-19T04:42:41;4.20;;;2.50;;
75737;SDS011;64356;45.638;13.764;2023-10-19T04:45:07;3.58;;;2.60;;
75737;SDS011;64356;45.638;13.764;2023-10-19T04:47:34;4.20;;;2.63;;
75737;SDS011;64356;45.638;13.764;2023-10-19T04:50:04;3.78;;;2.30;;
75737;SDS011;64356;45.638;13.764;2023-10-19T04:52:31;3.63;;;2.30;;
75737;SDS011;64356;45.638;13.764;2023-10-19T04:54:57;4.90;;;2.17;;
75737;SDS011;64356;45.638;13.764;2023-10-19T04:57:23;5.03;;;2.60;;
75737;SDS011;64356;45.638;13.764;2023-10-19T04:59:51;2.60;;;1.83;;
75737;SDS011;64356;45.638;13.764;2023-10-19T05:02:16;5.30;;;3.13;;
75737;SDS011;64356;45.638;13.764;2023-10-19T05:04:42;2.92;;;2.38;;
75737;SDS011;64356;45.638;13.764;2023-10-19T05:07:09;4.32;;;2.65;;
75737;SDS011;64356;45.638;13.764;2023-10-19T05:09:37;3.13;;;2.10;;
75737;SDS011;64356;45.638;13.764;2023-10-19T05:12:06;4.10;;;2.45;;
75737;SDS011;64356;45.638;13.764;2023-10-19T05:14:36;4.10;;;2.53;;
75737;SDS011;64356;45.638;13.764;2023-10-19T05:17:06;2.90;;;2.60;;
75737;SDS011;64356;45.638;13.764;2023-10-19T05:19:34;3.58;;;2.13;;
75737;SDS011;64356;45.638;13.764;2023-10-19T05:22:04;3.38;;;2.53;;
75737;SDS011;64356;45.638;13.764;2023-10-19T05:24:33;3.30;;;2.40;;
75737;SDS011;64356;45.638;13.764;2023-10-19T05:27:00;3.58;;;2.20;;
75737;SDS011;64356;45.638;13.764;2023-10-19T05:29:26;4.90;;;2.40;;
75737;SDS011;64356;45.638;13.764;2023-10-19T05:31:52;3.60;;;2.78;;
75737;SDS011;64356;45.638;13.764;2023-10-19T05:34:26;3.83;;;2.92;;
75737;SDS011;64356;45.638;13.764;2023-10-19T05:36:52;2.72;;;2.50;;
75737;SDS011;64356;45.638;13.764;2023-10-19T05:39:19;7.68;;;3.17;;
75737;SDS011;64356;45.638;13.764;2023-10-19T05:41:45;6.40;;;2.58;;
75737;SDS011;64356;45.638;13.764;2023-10-19T05:44:12;19.48;;;3.58;;
75737;SDS011;64356;45.638;13.764;2023-10-19T05:46:37;13.38;;;2.58;;
75737;SDS011;64356;45.638;13.764;2023-10-19T05:49:05;17.13;;;3.55;;
75737;SDS011;64356;45.638;13.764;2023-10-19T05:51:31;10.27;;;2.80;;
75737;SDS011;64356;45.638;13.764;2023-10-19T05:53:57;24.88;;;3.55;;
75737;SDS011;64356;45.638;13.764;2023-10-19T05:56:29;29.02;;;4.60;;
75737;SDS011;64356;45.638;13.764;2023-10-19T05:58:56;19.10;;;5.88;;
75737;SDS011;64356;45.638;13.764;2023-10-19T06:01:23;17.67;;;6.22;;
75737;SDS011;64356;45.638;13.764;2023-10-19T06:03:49;9.00;;;5.15;;
75737;SDS011;64356;45.638;13.764;2023-10-19T06:06:15;13.27;;;5.07;;
75737;SDS011;64356;45.638;13.764;2023-10-19T06:08:41;19.33;;;5.60;;
75737;SDS011;64356;45.638;13.764;2023-10-19T06:11:07;11.00;;;4.32;;
75737;SDS011;64356;45.638;13.764;2023-10-19T06:13:33;6.50;;;4.18;;
75737;SDS011;64356;45.638;13.764;2023-10-19T06:15:59;13.02;;;4.00;;
75737;SDS011;64356;45.638;13.764;2023-10-19T06:18:25;10.73;;;4.05;;
75737;SDS011;64356;45.638;13.764;2023-10-19T06:20:50;13.43;;;4.35;;
75737;SDS011;64356;45.638;13.764;2023-10-19T06:23:16;14.57;;;3.70;;
75737;SDS011;64356;45.638;13.764;2023-10-19T06:25:43;19.13;;;3.90;;
75737;SDS011;64356;45.638;13.764;2023-10-19T06:28:09;12.23;;;3.67;;
75737;SDS011;64356;45.638;13.764;2023-10-19T06:30:36;11.52;;;3.60;;
75737;SDS011;64356;45.638;13.764;2023-10-19T06:33:02;7.00;;;3.35;;
75737;SDS011;64356;45.638;13.764;2023-10-19T06:35:29;9.00;;;3.65;;
75737;SDS011;64356;45.638;13.764;2023-10-19T06:38:01;7.37;;;3.97;;
75737;SDS011;64356;45.638;13.764;2023-10-19T06:40:29;9.80;;;3.22;;
75737;SDS011;64356;45.638;13.764;2023-10-19T06:42:56;12.90;;;3.10;;
75737;SDS011;64356;45.638;13.764;2023-10-19T06:45:23;10.13;;;3.97;;
75737;SDS011;64356;45.638;13.764;2023-10-19T06:47:50;14.43;;;3.75;;
75737;SDS011;64356;45.638;13.764;2023-10-19T06:50:18;16.75;;;3.85;;
75737;SDS011;64356;45.638;13.764;2023-10-19T06:52:45;13.73;;;3.28;;
75737;SDS011;64356;45.638;13.764;2023-10-19T06:55:13;11.68;;;2.88;;
75737;SDS011;64356;45.638;13.764;2023-10-19T06:57:41;18.52;;;3.17;;
75737;SDS011;64356;45.638;13.764;2023-10-19T07:00:11;7.47;;;3.03;;
75737;SDS011;64356;45.638;13.764;2023-10-19T07:02:50;14.27;;;3.08;;
75737;SDS011;64356;45.638;13.764;2023-10-19T07:05:17;10.68;;;3.78;;
75737;SDS011;64356;45.638;13.764;2023-10-19T07:07:47;11.77;;;3.28;;
75737;SDS011;64356;45.638;13.764;2023-10-19T07:10:14;7.22;;;3.90;;
75737;SDS011;64356;45.638;13.764;2023-10-19T07:12:41;10.20;;;3.05;;
75737;SDS011;64356;45.638;13.764;2023-10-19T07:15:08;13.35;;;3.75;;
75737;SDS011;64356;45.638;13.764;2023-10-19T07:17:38;17.50;;;3.80;;
75737;SDS011;64356;45.638;13.764;2023-10-19T07:20:05;13.38;;;4.43;;
75737;SDS011;64356;45.638;13.764;2023-10-19T07:22:34;11.25;;;3.67;;
75737;SDS011;64356;45.638;13.764;2023-10-19T07:25:04;9.25;;;3.30;;
75737;SDS011;64356;45.638;13.764;2023-10-19T07:27:31;14.95;;;4.32;;
75737;SDS011;64356;45.638;13.764;2023-10-19T07:29:58;10.40;;;4.72;;
75737;SDS011;64356;45.638;13.764;2023-10-19T07:32:25;11.70;;;3.40;;
75737;SDS011;64356;45.638;13.764;2023-10-19T07:34:53;9.02;;;3.60;;
75737;SDS011;64356;45.638;13.764;2023-10-19T07:37:20;27.13;;;4.88;;
75737;SDS011;64356;45.638;13.764;2023-10-19T07:39:46;13.90;;;4.15;;
75737;SDS011;64356;45.638;13.764;2023-10-19T07:42:13;10.90;;;3.58;;
75737;SDS011;64356;45.638;13.764;2023-10-19T07:44:39;12.20;;;4.03;;
75737;SDS011;64356;45.638;13.764;2023-10-19T07:47:06;7.72;;;3.40;;
75737;SDS011;64356;45.638;13.764;2023-10-19T07:49:34;13.05;;;4.50;;
75737;SDS011;64356;45.638;13.764;2023-10-19T07:52:04;14.98;;;3.72;;
75737;SDS011;64356;45.638;13.764;2023-10-19T07:54:34;16.33;;;3.40;;
75737;SDS011;64356;45.638;13.764;2023-10-19T07:57:00;13.35;;;3.40;;
75737;SDS011;64356;45.638;13.764;2023-10-19T07:59:32;13.07;;;4.10;;
75737;SDS011;64356;45.638;13.764;2023-10-19T08:02:00;16.25;;;4.40;;
75737;SDS011;64356;45.638;13.764;2023-10-19T08:07:08;9.02;;;3.38;;
75737;SDS011;64356;45.638;13.764;2023-10-19T08:09:35;10.48;;;4.03;;
75737;SDS011;64356;45.638;13.764;2023-10-19T08:12:01;17.27;;;4.05;;
75737;SDS011;64356;45.638;13.764;2023-10-19T08:14:30;10.75;;;4.25;;
75737;SDS011;64356;45.638;13.764;2023-10-19T08:16:56;6.95;;;3.53;;
75737;SDS011;64356;45.638;13.764;2023-10-19T08:19:21;14.10;;;3.85;;
75737;SDS011;64356;45.638;13.764;2023-10-19T08:21:47;16.27;;;4.15;;
75737;SDS011;64356;45.638;13.764;2023-10-19T08:24:13;29.83;;;3.85;;
75737;SDS011;64356;45.638;13.764;2023-10-19T08:26:42;14.38;;;3.90;;
75737;SDS011;64356;45.638;13.764;2023-10-19T08:29:12;15.80;;;4.30;;
75737;SDS011;64356;45.638;13.764;2023-10-19T08:31:41;12.52;;;4.22;;
75737;SDS011;64356;45.638;13.764;2023-10-19T08:34:13;9.13;;;4.20;;
75737;SDS011;64356;45.638;13.764;2023-10-19T08:36:39;10.30;;;4.13;;
75737;SDS011;64356;45.638;13.764;2023-10-19T08:39:06;15.50;;;4.03;;
75737;SDS011;64356;45.638;13.764;2023-10-19T08:41:35;8.35;;;3.80;;
75737;SDS011;64356;45.638;13.764;2023-10-19T08:44:05;16.40;;;5.10;;
75737;SDS011;64356;45.638;13.764;2023-10-19T08:46:42;16.30;;;4.65;;
75737;SDS011;64356;45.638;13.764;2023-10-19T08:49:10;10.02;;;3.83;;
75737;SDS011;64356;45.638;13.764;2023-10-19T08:51:37;8.68;;;3.97;;
75737;SDS011;64356;45.638;13.764;2023-10-19T08:54:06;8.75;;;4.82;;
75737;SDS011;64356;45.638;13.764;2023-10-19T08:56:36;10.82;;;3.80;;
75737;SDS011;64356;45.638;13.764;2023-10-19T08:59:02;8.38;;;4.05;;
75737;SDS011;64356;45.638;13.764;2023-10-19T09:01:28;14.18;;;5.40;;
75737;SDS011;64356;45.638;13.764;2023-10-19T09:03:57;11.32;;;4.55;;
75737;SDS011;64356;45.638;13.764;2023-10-19T09:06:24;11.48;;;3.97;;
75737;SDS011;64356;45.638;13.764;2023-10-19T09:08:50;20.00;;;4.18;;
75737;SDS011;64356;45.638;13.764;2023-10-19T09:11:16;12.35;;;4.47;;
75737;SDS011;64356;45.638;13.764;2023-10-19T09:16:18;18.48;;;4.32;;
75737;SDS011;64356;45.638;13.764;2023-10-19T09:18:46;12.13;;;4.05;;
75737;SDS011;64356;45.638;13.764;2023-10-19T09:21:14;23.95;;;3.90;;
75737;SDS011;64356;45.638;13.764;2023-10-19T09:23:50;20.20;;;4.32;;
75737;SDS011;64356;45.638;13.764;2023-10-19T09:26:21;14.20;;;4.45;;
75737;SDS011;64356;45.638;13.764;2023-10-19T09:28:51;12.38;;;4.50;;
75737;SDS011;64356;45.638;13.764;2023-10-19T09:33:46;22.27;;;4.25;;
75737;SDS011;64356;45.638;13.764;2023-10-19T09:36:14;22.60;;;4.32;;
75737;SDS011;64356;45.638;13.764;2023-10-19T09:38:46;11.60;;;4.15;;
75737;SDS011;64356;45.638;13.764;2023-10-19T09:41:20;16.85;;;4.60;;
75737;SDS011;64356;45.638;13.764;2023-10-19T09:43:50;11.73;;;5.47;;
75737;SDS011;64356;45.638;13.764;2023-10-19T09:46:22;13.00;;;4.70;;
75737;SDS011;64356;45.638;13.764;2023-10-19T09:48:52;23.15;;;4.45;;
75737;SDS011;64356;45.638;13.764;2023-10-19T09:51:18;14.13;;;4.45;;
75737;SDS011;64356;45.638;13.764;2023-10-19T09:56:32;25.52;;;5.20;;
75737;SDS011;64356;45.638;13.764;2023-10-19T09:59:11;16.10;;;4.18;;
75737;SDS011;64356;45.638;13.764;2023-10-19T10:04:30;12.85;;;4.05;;
75737;SDS011;64356;45.638;13.764;2023-10-19T10:06:57;22.80;;;3.90;;
75737;SDS011;64356;45.638;13.764;2023-10-19T10:09:25;13.68;;;4.10;;
75737;SDS011;64356;45.638;13.764;2023-10-19T10:11:52;16.88;;;4.28;;
75737;SDS011;64356;45.638;13.764;2023-10-19T10:14:25;21.42;;;4.55;;
75737;SDS011;64356;45.638;13.764;2023-10-19T10:17:00;31.65;;;4.47;;
75737;SDS011;64356;45.638;13.764;2023-10-19T10:19:34;15.68;;;4.45;;
75737;SDS011;64356;45.638;13.764;2023-10-19T10:22:03;9.20;;;3.80;;
75737;SDS011;64356;45.638;13.764;2023-10-19T10:24:46;29.25;;;4.57;;
75737;SDS011;64356;45.638;13.764;2023-10-19T10:27:11;26.15;;;5.22;;
75737;SDS011;64356;45.638;13.764;2023-10-19T10:29:54;19.17;;;4.60;;
75737;SDS011;64356;45.638;13.764;2023-10-19T10:38:05;14.88;;;4.53;;
75737;SDS011;64356;45.638;13.764;2023-10-19T10:43:09;27.77;;;5.05;;
75737;SDS011;64356;45.638;13.764;2023-10-19T10:45:38;17.13;;;4.53;;
75737;SDS011;64356;45.638;13.764;2023-10-19T10:48:03;23.27;;;4.93;;
75737;SDS011;64356;45.638;13.764;2023-10-19T10:50:37;24.55;;;5.07;;
75737;SDS011;64356;45.638;13.764;2023-10-19T10:53:04;12.18;;;4.32;;
75737;SDS011;64356;45.638;13.764;2023-10-19T10:55:30;13.63;;;4.53;;
75737;SDS011;64356;45.638;13.764;2023-10-19T10:57:57;13.70;;;4.65;;
75737;SDS011;64356;45.638;13.764;2023-10-19T11:00:24;16.90;;;4.85;;
75737;SDS011;64356;45.638;13.764;2023-10-19T11:03:03;20.30;;;3.90;;
75737;SDS011;64356;45.638;13.764;2023-10-19T11:05:32;16.00;;;4.68;;
75737;SDS011;64356;45.638;13.764;2023-10-19T11:10:38;13.25;;;4.22;;
75737;SDS011;64356;45.638;13.764;2023-10-19T11:13:08;13.25;;;3.97;;
75737;SDS011;64356;45.638;13.764;2023-10-19T11:15:36;21.75;;;4.53;;
75737;SDS011;64356;45.638;13.764;2023-10-19T11:18:02;13.13;;;4.95;;
75737;SDS011;64356;45.638;13.764;2023-10-19T11:20:29;12.13;;;4.65;;
75737;SDS011;64356;45.638;13.764;2023-10-19T11:22:55;18.38;;;5.00;;
75737;SDS011;64356;45.638;13.764;2023-10-19T11:25:29;16.77;;;5.10;;
75737;SDS011;64356;45.638;13.764;2023-10-19T11:27:59;17.73;;;5.20;;
75737;SDS011;64356;45.638;13.764;2023-10-19T11:30:29;18.75;;;4.32;;
75737;SDS011;64356;45.638;13.764;2023-10-19T11:32:59;23.10;;;4.65;;
75737;SDS011;64356;45.638;13.764;2023-10-19T11:35:26;17.10;;;4.75;;
75737;SDS011;64356;45.638;13.764;2023-10-19T11:37:56;23.17;;;5.07;;
75737;SDS011;64356;45.638;13.764;2023-10-19T11:40:27;19.55;;;3.28;;
75737;SDS011;64356;45.638;13.764;2023-10-19T11:42:53;8.88;;;3.20;;
75737;SDS011;64356;45.638;13.764;2023-10-19T11:45:23;29.25;;;3.22;;
75737;SDS011;64356;45.638;13.764;2023-10-19T11:47:49;14.52;;;2.95;;
75737;SDS011;64356;45.638;13.764;2023-10-19T11:50:18;8.20;;;3.30;;
75737;SDS011;64356;45.638;13.764;2023-10-19T11:52:44;28.20;;;4.50;;
75737;SDS011;64356;45.638;13.764;2023-10-19T11:55:14;27.35;;;4.57;;
75737;SDS011;64356;45.638;13.764;2023-10-19T11:57:41;23.35;;;3.45;;
75737;SDS011;64356;45.638;13.764;2023-10-19T12:00:09;25.48;;;3.95;;
75737;SDS011;64356;45.638;13.764;2023-10-19T12:02:47;9.10;;;3.28;;
75737;SDS011;64356;45.638;13.764;2023-10-19T12:05:13;19.73;;;3.00;;
75737;SDS011;64356;45.638;13.764;2023-10-19T12:07:39;5.85;;;3.22;;
75737;SDS011;64356;45.638;13.764;2023-10-19T12:10:08;3.92;;;3.10;;
75737;SDS011;64356;45.638;13.764;2023-10-19T12:12:38;4.70;;;2.80;;
75737;SDS011;64356;45.638;13.764;2023-10-19T12:15:04;9.38;;;3.25;;
75737;SDS011;64356;45.638;13.764;2023-10-19T12:17:31;6.10;;;3.20;;
75737;SDS011;64356;45.638;13.764;2023-10-19T12:19:57;7.53;;;3.22;;
75737;SDS011;64356;45.638;13.764;2023-10-19T12:22:24;13.90;;;3.33;;
75737;SDS011;64356;45.638;13.764;2023-10-19T12:24:53;8.65;;;3.33;;
75737;SDS011;64356;45.638;13.764;2023-10-19T12:27:20;7.78;;;3.00;;
75737;SDS011;64356;45.638;13.764;2023-10-19T12:29:45;7.82;;;3.05;;
75737;SDS011;64356;45.638;13.764;2023-10-19T12:32:11;9.50;;;3.42;;
75737;SDS011;64356;45.638;13.764;2023-10-19T12:34:39;4.32;;;2.40;;
75737;SDS011;64356;45.638;13.764;2023-10-19T12:37:06;12.32;;;3.65;;
75737;SDS011;64356;45.638;13.764;2023-10-19T12:39:34;5.85;;;2.88;;
75737;SDS011;64356;45.638;13.764;2023-10-19T12:42:00;5.00;;;2.90;;
75737;SDS011;64356;45.638;13.764;2023-10-19T12:44:26;9.32;;;3.22;;
75737;SDS011;64356;45.638;13.764;2023-10-19T12:46:54;8.43;;;3.85;;
75737;SDS011;64356;45.638;13.764;2023-10-19T12:49:22;8.27;;;3.45;;
75737;SDS011;64356;45.638;13.764;2023-10-19T12:51:51;8.02;;;3.35;;
75737;SDS011;64356;45.638;13.764;2023-10-19T12:54:18;12.32;;;3.08;;
75737;SDS011;64356;45.638;13.764;2023-10-19T12:56:44;6.72;;;3.30;;
75737;SDS011;64356;45.638;13.764;2023-10-19T12:59:09;5.85;;;3.38;;
75737;SDS011;64356;45.638;13.764;2023-10-19T13:01:36;8.65;;;3.15;;
75737;SDS011;64356;45.638;13.764;2023-10-19T13:04:02;9.73;;;3.58;;
75737;SDS011;64356;45.638;13.764;2023-10-19T13:06:41;4.38;;;2.60;;
75737;SDS011;64356;45.638;13.764;2023-10-19T13:09:07;13.52;;;3.10;;
75737;SDS011;64356;45.638;13.764;2023-10-19T13:11:34;9.27;;;3.70;;
75737;SDS011;64356;45.638;13.764;2023-10-19T13:14:00;14.20;;;3.50;;
75737;SDS011;64356;45.638;13.764;2023-10-19T13:16:26;7.60;;;3.47;;
75737;SDS011;64356;45.638;13.764;2023-10-19T13:18:52;7.93;;;3.40;;
75737;SDS011;64356;45.638;13.764;2023-10-19T13:21:19;6.75;;;3.28;;
75737;SDS011;64356;45.638;13.764;2023-10-19T13:23:51;12.70;;;3.85;;
75737;SDS011;64356;45.638;13.764;2023-10-19T13:26:17;8.82;;;3.80;;
75737;SDS011;64356;45.638;13.764;2023-10-19T13:28:43;9.80;;;3.35;;
75737;SDS011;64356;45.638;13.764;2023-10-19T13:31:09;9.00;;;3.70;;
75737;SDS011;64356;45.638;13.764;2023-10-19T13:33:36;8.88;;;3.10;;
75737;SDS011;64356;45.638;13.764;2023-10-19T13:36:02;10.63;;;3.85;;
75737;SDS011;64356;45.638;13.764;2023-10-19T13:38:29;9.82;;;3.90;;
75737;SDS011;64356;45.638;13.764;2023-10-19T13:40:55;7.30;;;3.53;;
75737;SDS011;64356;45.638;13.764;2023-10-19T13:43:21;7.13;;;3.70;;
75737;SDS011;64356;45.638;13.764;2023-10-19T13:45:47;10.25;;;4.25;;
75737;SDS011;64356;45.638;13.764;2023-10-19T13:48:14;5.05;;;3.83;;
75737;SDS011;64356;45.638;13.764;2023-10-19T13:50:49;6.82;;;3.55;;
75737;SDS011;64356;45.638;13.764;2023-10-19T13:53:17;10.10;;;4.22;;
75737;SDS011;64356;45.638;13.764;2023-10-19T13:55:44;14.65;;;3.88;;
75737;SDS011;64356;45.638;13.764;2023-10-19T13:58:10;8.30;;;3.58;;
75737;SDS011;64356;45.638;13.764;2023-10-19T14:00:37;6.43;;;3.95;;
75737;SDS011;64356;45.638;13.764;2023-10-19T14:03:08;9.25;;;4.20;;
75737;SDS011;64356;45.638;13.764;2023-10-19T14:05:38;5.25;;;3.45;;
75737;SDS011;64356;45.638;13.764;2023-10-19T14:08:13;8.30;;;4.03;;
75737;SDS011;64356;45.638;13.764;2023-10-19T14:10:39;9.77;;;4.18;;
75737;SDS011;64356;45.638;13.764;2023-10-19T14:13:09;7.47;;;4.47;;
75737;SDS011;64356;45.638;13.764;2023-10-19T14:30:14;15.13;;;4.82;;
75737;SDS011;64356;45.638;13.764;2023-10-19T14:32:42;12.55;;;4.35;;
